Etusivu
METAR-TAF:

METAR-TAF

Lentoasemat :

Meeker Airport

Meeker, Colorado, Yhdysvallat

Leveyspiiri: 40-02-32N, Pituuspiiri: 107-53-23W, korkeus merenpinnasta: 1948 m

Tämänhetkinen sää

Tämä raportti tehtiin 15 minuuttia sitten, kello 11.53 UTC
Tuuli 4 kn idästä
Lämpötila -1°C
Kosteus 43%
Ilmanpaine 1021 hPa
Näkyvyys: 16.1 km
Muutamia pilviä 10000 ft:n korkeudessa

METAR: KEEO 131153Z AUTO 09004KT 10SM FEW100 M01/M12 A3015 RMK AO2 SLP200 T10061122 10000 21044 53000

Aika: 05:08 (12:08 UTC)


TAF: puuttuu

Säähavainnot ja -ennusteet yli 4000 lentoasemalta (METAR- ja TAF-raportit).

Käytössä olevat sääasemat on merkitty karttaan keltaisilla ja punaisilla pisteillä.

Aseta hiiri pisteen päälle nähdäksesi sääaseman nimen.

Klikkaa sitten nähdäksesi säähavainnot ja -ennusteet.

Kartan vaihtaminen: klikkaa mustalla rastilla varustettuja vihreitä pisteitä, niin voit zoomata sisään; viivalla varustettua vihreää pistettä, niin voit zoomata ulos tai vihreitä nuolia, niin pääset viereisille kartoille.


METAR-TAF: